Time;durP1;ratioP1;P1;durP2;ratioP2;P2;SDS_P1;SDS_P2;PMS_P1;PMS_P2;Temp;Humidity;BMP_temperature;BMP_pressure;BME280_temperature;BME280_humidity;BME280_pressure;Samples;Min_cycle;Max_cycle;Signal;HPM_P1;HPM_P2
2023/03/17 00:00:17;;;;;;;8.82;8.43;;;;;;;;;;5070952;28;20051;-71
2023/03/17 00:02:44;;;;;;;9.05;8.63;;;;;;;;;;5067119;28;20494;-70
2023/03/17 00:05:13;;;;;;;9.10;8.70;;;;;;;;;;5071938;28;20133;-71
2023/03/17 00:07:39;;;;;;;9.40;8.90;;;;;;;;;;5071903;28;20024;-71
2023/03/17 00:10:09;;;;;;;9.55;9.05;;;;;;;;;;5072196;28;20069;-70
2023/03/17 00:12:35;;;;;;;8.85;8.45;;;;;;;;;;5072042;28;20013;-72
2023/03/17 00:15:01;;;;;;;9.48;8.98;;;;;;;;;;5070349;28;20047;-73
2023/03/17 00:17:27;;;;;;;9.50;9.00;;;;;;;;;;5070852;28;20055;-73
2023/03/17 00:19:53;;;;;;;9.50;9.00;;;;;;;;;;5065836;28;20601;-71
2023/03/17 00:22:21;;;;;;;8.90;8.50;;;;;;;;;;5064849;28;20099;-72
2023/03/17 00:24:46;;;;;;;9.10;8.65;;;;;;;;;;5075836;28;20017;-75
2023/03/17 00:27:12;;;;;;;8.70;8.30;;;;;;;;;;5076392;28;20021;-71
2023/03/17 00:29:38;;;;;;;8.80;8.40;;;;;;;;;;5076599;28;20074;-72
2023/03/17 00:32:04;;;;;;;9.57;9.07;;;;;;;;;;5066388;28;20099;-73
2023/03/17 00:34:29;;;;;;;8.82;8.43;;;;;;;;;;5066889;28;20526;-73
2023/03/17 00:36:54;;;;;;;8.85;8.45;;;;;;;;;;5068972;28;20024;-72
2023/03/17 00:39:20;;;;;;;9.40;8.90;;;;;;;;;;5075614;28;20028;-73
2023/03/17 00:41:45;;;;;;;9.30;8.80;;;;;;;;;;5074070;28;20026;-72
2023/03/17 00:44:11;;;;;;;9.65;9.15;;;;;;;;;;5081254;28;20479;-71
2023/03/17 00:46:36;;;;;;;8.98;8.57;;;;;;;;;;5075529;28;20492;-72
2023/03/17 00:49:09;;;;;;;9.35;8.85;;;;;;;;;;5065542;28;20016;-72
2023/03/17 00:51:34;;;;;;;9.48;8.98;;;;;;;;;;5069268;28;20074;-72
2023/03/17 00:54:00;;;;;;;9.38;8.88;;;;;;;;;;5080625;28;20013;-72
2023/03/17 00:56:25;;;;;;;9.65;9.15;;;;;;;;;;5073445;28;20041;-72
2023/03/17 00:58:51;;;;;;;9.02;8.63;;;;;;;;;;5069721;28;20025;-72
2023/03/17 01:01:17;;;;;;;9.95;9.45;;;;;;;;;;5080520;28;20468;-71
2023/03/17 01:03:43;;;;;;;9.95;9.45;;;;;;;;;;5073430;28;20553;-72
2023/03/17 01:06:10;;;;;;;8.80;8.40;;;;;;;;;;5074911;28;20070;-72
2023/03/17 01:08:36;;;;;;;9.30;8.80;;;;;;;;;;5073775;28;20021;-72
2023/03/17 01:11:01;;;;;;;8.90;8.50;;;;;;;;;;5074743;28;20533;-72
2023/03/17 01:13:28;;;;;;;9.50;9.00;;;;;;;;;;5075028;28;20016;-71
2023/03/17 01:15:54;;;;;;;9.02;8.57;;;;;;;;;;5074166;28;20154;-71
2023/03/17 01:18:20;;;;;;;9.35;8.85;;;;;;;;;;5075244;28;20020;-71
2023/03/17 01:20:46;;;;;;;9.75;9.25;;;;;;;;;;5074808;28;20025;-71
2023/03/17 01:23:11;;;;;;;9.43;8.93;;;;;;;;;;5071965;28;20009;-71
2023/03/17 01:25:37;;;;;;;9.10;8.65;;;;;;;;;;5071511;28;20020;-71
2023/03/17 01:28:04;;;;;;;8.75;8.35;;;;;;;;;;5073561;28;20021;-71
2023/03/17 01:30:32;;;;;;;8.90;8.50;;;;;;;;;;5074966;28;20017;-72
2023/03/17 01:32:57;;;;;;;8.60;8.20;;;;;;;;;;5066592;28;20013;-72
2023/03/17 01:35:24;;;;;;;8.85;8.45;;;;;;;;;;5068308;28;20474;-71
2023/03/17 01:37:50;;;;;;;8.90;8.50;;;;;;;;;;5073281;28;20052;-71
2023/03/17 01:40:17;;;;;;;8.70;8.30;;;;;;;;;;5074376;28;20074;-71
2023/03/17 01:42:44;;;;;;;8.82;8.43;;;;;;;;;;5073167;28;20464;-71
2023/03/17 01:45:29;;;;;;;9.10;8.65;;;;;;;;;;5074379;28;20383;-70
2023/03/17 01:47:55;;;;;;;8.85;8.45;;;;;;;;;;5051970;28;20044;-71
2023/03/17 01:50:20;;;;;;;9.00;8.60;;;;;;;;;;5071514;28;20020;-72
2023/03/17 01:52:46;;;;;;;8.70;8.30;;;;;;;;;;5074484;28;20103;-70
2023/03/17 01:55:14;;;;;;;9.23;8.80;;;;;;;;;;5060874;28;20048;-71
2023/03/17 01:57:43;;;;;;;9.60;9.10;;;;;;;;;;5067265;28;20547;-72
2023/03/17 02:00:14;;;;;;;8.80;8.40;;;;;;;;;;5060059;28;20035;-72
2023/03/17 02:02:41;;;;;;;9.35;8.85;;;;;;;;;;5073788;28;20020;-70
2023/03/17 02:05:09;;;;;;;8.95;8.55;;;;;;;;;;5073863;28;20020;-73
2023/03/17 02:07:34;;;;;;;9.35;8.85;;;;;;;;;;5060538;28;20024;-71
2023/03/17 02:10:01;;;;;;;9.32;8.82;;;;;;;;;;5074655;28;20013;-72
2023/03/17 02:12:27;;;;;;;9.27;8.77;;;;;;;;;;5074006;28;20020;-72
2023/03/17 02:14:53;;;;;;;9.55;9.05;;;;;;;;;;5073071;28;20510;-72
2023/03/17 02:17:20;;;;;;;9.02;8.63;;;;;;;;;;5071218;28;20029;-72
2023/03/17 02:19:45;;;;;;;9.18;8.77;;;;;;;;;;5073416;28;20031;-72
2023/03/17 02:22:10;;;;;;;8.60;8.20;;;;;;;;;;5073682;28;20021;-72
2023/03/17 02:24:50;;;;;;;8.65;8.25;;;;;;;;;;5071155;28;20024;-71
2023/03/17 02:27:15;;;;;;;8.90;8.50;;;;;;;;;;5072088;28;20385;-71
2023/03/17 02:29:40;;;;;;;9.10;8.70;;;;;;;;;;5072903;28;20096;-72
2023/03/17 02:32:06;;;;;;;8.75;8.35;;;;;;;;;;5073599;28;20024;-71
2023/03/17 02:34:32;;;;;;;8.75;8.35;;;;;;;;;;5072871;28;20063;-71
2023/03/17 02:36:58;;;;;;;9.30;8.82;;;;;;;;;;5073150;28;20513;-71
2023/03/17 02:39:23;;;;;;;9.30;8.80;;;;;;;;;;5073341;28;20017;-72
2023/03/17 02:41:49;;;;;;;9.25;8.75;;;;;;;;;;5062904;28;20039;-71
2023/03/17 02:44:15;;;;;;;9.27;8.80;;;;;;;;;;5083993;28;20021;-71
2023/03/17 02:46:40;;;;;;;9.25;8.77;;;;;;;;;;5073523;28;20377;-71
2023/03/17 02:49:07;;;;;;;9.07;8.68;;;;;;;;;;5072837;28;20055;-71
2023/03/17 02:51:32;;;;;;;9.35;8.85;;;;;;;;;;5065824;28;20023;-71
2023/03/17 02:53:58;;;;;;;9.93;9.38;;;;;;;;;;5101511;28;20107;-72
2023/03/17 02:56:23;;;;;;;9.00;8.60;;;;;;;;;;5071279;28;20045;-73
2023/03/17 02:58:48;;;;;;;9.65;9.15;;;;;;;;;;5064997;28;20032;-71
2023/03/17 03:01:15;;;;;;;9.00;8.60;;;;;;;;;;5072864;28;20052;-70
2023/03/17 03:03:40;;;;;;;8.60;8.20;;;;;;;;;;5072690;28;20013;-72
2023/03/17 03:06:06;;;;;;;9.85;9.35;;;;;;;;;;5072524;28;20357;-71
2023/03/17 03:08:31;;;;;;;9.10;8.70;;;;;;;;;;5068613;28;20396;-71
2023/03/17 03:10:59;;;;;;;9.93;9.43;;;;;;;;;;5072446;28;20051;-72
2023/03/17 03:13:25;;;;;;;9.55;9.05;;;;;;;;;;5072252;28;20027;-71
2023/03/17 03:15:50;;;;;;;9.88;9.38;;;;;;;;;;5071837;28;20008;-71
2023/03/17 03:18:15;;;;;;;9.27;8.88;;;;;;;;;;5072090;28;20091;-71
2023/03/17 03:20:42;;;;;;;9.30;8.90;;;;;;;;;;5070960;28;20070;-73
2023/03/17 03:23:07;;;;;;;9.85;9.35;;;;;;;;;;5072035;28;20024;-72
2023/03/17 03:25:34;;;;;;;9.55;9.07;;;;;;;;;;5060388;28;20491;-72
2023/03/17 03:28:00;;;;;;;9.20;8.80;;;;;;;;;;5068735;28;20052;-72
2023/03/17 03:30:25;;;;;;;9.10;8.70;;;;;;;;;;5072180;28;20517;-71
2023/03/17 03:32:51;;;;;;;10.50;9.90;;;;;;;;;;5071313;28;20391;-71
2023/03/17 03:35:16;;;;;;;9.95;9.45;;;;;;;;;;5071964;28;20032;-71
2023/03/17 03:37:42;;;;;;;9.40;8.90;;;;;;;;;;5071943;28;20051;-72
2023/03/17 03:40:07;;;;;;;10.40;9.80;;;;;;;;;;5067598;28;20390;-71
2023/03/17 03:42:33;;;;;;;9.85;9.35;;;;;;;;;;5052631;28;20029;-73
2023/03/17 03:44:58;;;;;;;9.82;9.32;;;;;;;;;;5070217;28;20062;-71
2023/03/17 03:47:24;;;;;;;9.50;9.05;;;;;;;;;;5068962;28;20035;-72
2023/03/17 03:49:49;;;;;;;10.00;9.50;;;;;;;;;;5071501;28;20502;-72
2023/03/17 03:52:14;;;;;;;9.27;8.88;;;;;;;;;;5066588;28;20024;-72
2023/03/17 03:54:40;;;;;;;9.23;8.82;;;;;;;;;;5077218;28;20468;-72
2023/03/17 03:57:05;;;;;;;9.60;9.10;;;;;;;;;;5069361;28;20057;-73
2023/03/17 03:59:31;;;;;;;9.60;9.10;;;;;;;;;;5064197;28;20016;-71
2023/03/17 04:01:56;;;;;;;9.73;9.23;;;;;;;;;;5070234;28;20525;-71
2023/03/17 04:04:22;;;;;;;9.60;9.10;;;;;;;;;;5071678;28;20460;-70
2023/03/17 04:06:48;;;;;;;10.55;9.95;;;;;;;;;;5059993;28;20657;-72
2023/03/17 04:09:16;;;;;;;9.70;9.20;;;;;;;;;;5065684;28;20058;-70
2023/03/17 04:11:41;;;;;;;9.52;9.02;;;;;;;;;;5062219;28;20138;-71
2023/03/17 04:14:07;;;;;;;9.60;9.10;;;;;;;;;;5071699;28;20035;-71
2023/03/17 04:16:32;;;;;;;9.73;9.23;;;;;;;;;;5071336;28;20028;-72
2023/03/17 04:18:58;;;;;;;9.50;9.00;;;;;;;;;;5071567;28;20104;-71
2023/03/17 04:21:23;;;;;;;9.80;9.30;;;;;;;;;;5056482;28;20025;-71
2023/03/17 04:23:49;;;;;;;9.75;9.25;;;;;;;;;;5071123;28;20537;-71
2023/03/17 04:26:17;;;;;;;9.50;9.00;;;;;;;;;;5071803;28;20021;-72
2023/03/17 04:28:42;;;;;;;9.30;8.88;;;;;;;;;;5071297;28;20078;-71
2023/03/17 04:31:11;;;;;;;9.20;8.80;;;;;;;;;;5070384;28;20020;-72
2023/03/17 04:33:36;;;;;;;9.18;8.77;;;;;;;;;;5065055;28;20371;-72
2023/03/17 04:36:02;;;;;;;9.63;9.13;;;;;;;;;;5056964;28;20028;-72
2023/03/17 04:38:28;;;;;;;9.60;9.10;;;;;;;;;;5055402;28;20418;-71
2023/03/17 04:40:53;;;;;;;9.23;8.73;;;;;;;;;;5071884;28;20107;-70
2023/03/17 04:43:18;;;;;;;9.15;8.65;;;;;;;;;;5071766;28;20060;-72
2023/03/17 04:45:44;;;;;;;9.40;8.90;;;;;;;;;;5086682;28;20021;-71
2023/03/17 04:48:09;;;;;;;8.73;8.32;;;;;;;;;;5063970;28;20108;-72
2023/03/17 04:50:35;;;;;;;8.70;8.30;;;;;;;;;;5071358;28;20025;-72
2023/03/17 04:53:00;;;;;;;8.20;7.80;;;;;;;;;;5067367;28;20089;-71
2023/03/17 04:55:26;;;;;;;8.45;8.05;;;;;;;;;;5070257;28;20052;-71
2023/03/17 04:57:53;;;;;;;9.43;8.93;;;;;;;;;;5072259;28;20063;-72
2023/03/17 05:00:19;;;;;;;9.13;8.65;;;;;;;;;;5075065;28;20020;-72
2023/03/17 05:02:44;;;;;;;9.52;9.02;;;;;;;;;;5069481;28;20298;-71
2023/03/17 05:05:10;;;;;;;10.52;9.93;;;;;;;;;;5067050;28;20024;-72
2023/03/17 05:07:35;;;;;;;9.65;9.15;;;;;;;;;;5064632;28;20029;-71
2023/03/17 05:10:01;;;;;;;9.20;8.80;;;;;;;;;;5077022;28;20107;-71
2023/03/17 05:12:26;;;;;;;10.70;10.10;;;;;;;;;;5075994;28;20032;-70
2023/03/17 05:14:51;;;;;;;9.32;8.93;;;;;;;;;;5073340;28;20422;-71
2023/03/17 05:17:17;;;;;;;10.00;9.50;;;;;;;;;;5069055;28;20079;-71
2023/03/17 05:19:42;;;;;;;9.40;8.98;;;;;;;;;;5058759;28;20028;-70
2023/03/17 05:22:07;;;;;;;9.70;9.20;;;;;;;;;;5069477;28;20107;-72
2023/03/17 05:24:33;;;;;;;9.02;8.63;;;;;;;;;;5067203;28;20020;-72
2023/03/17 05:26:58;;;;;;;9.45;9.05;;;;;;;;;;5075868;28;20383;-72
2023/03/17 05:29:23;;;;;;;10.32;9.82;;;;;;;;;;5073003;28;20383;-71
2023/03/17 05:31:49;;;;;;;10.48;9.98;;;;;;;;;;5074811;28;20025;-72
2023/03/17 05:34:14;;;;;;;9.52;9.13;;;;;;;;;;5078044;28;20488;-72
2023/03/17 05:36:40;;;;;;;9.70;9.30;;;;;;;;;;5080061;28;20032;-72
2023/03/17 05:39:06;;;;;;;10.13;9.63;;;;;;;;;;5062279;28;20025;-70
2023/03/17 05:41:32;;;;;;;10.13;9.63;;;;;;;;;;5068609;28;20020;-72
2023/03/17 05:43:58;;;;;;;10.27;9.77;;;;;;;;;;5067063;28;20028;-71
2023/03/17 05:46:25;;;;;;;10.43;9.93;;;;;;;;;;5073748;28;20024;-72
2023/03/17 05:48:50;;;;;;;10.07;9.57;;;;;;;;;;5073593;28;20044;-71
2023/03/17 05:51:16;;;;;;;9.73;9.32;;;;;;;;;;5073873;28;20017;-72
2023/03/17 05:53:42;;;;;;;9.75;9.35;;;;;;;;;;5072341;28;20036;-71
2023/03/17 05:56:09;;;;;;;9.95;9.55;;;;;;;;;;5073535;28;20051;-70
2023/03/17 05:58:34;;;;;;;10.52;10.02;;;;;;;;;;5070439;28;20048;-71
2023/03/17 06:00:59;;;;;;;9.57;9.18;;;;;;;;;;5071657;28;20121;-70
2023/03/17 06:03:25;;;;;;;11.13;10.63;;;;;;;;;;5071502;28;20052;-70
2023/03/17 06:05:50;;;;;;;10.73;10.23;;;;;;;;;;5068368;28;20032;-71
2023/03/17 06:08:16;;;;;;;11.23;10.73;;;;;;;;;;5059899;28;20029;-73
2023/03/17 06:10:41;;;;;;;10.50;10.00;;;;;;;;;;5057456;28;20024;-72
2023/03/17 06:13:07;;;;;;;10.77;10.27;;;;;;;;;;5063824;28;20048;-72
2023/03/17 06:15:34;;;;;;;10.02;9.63;;;;;;;;;;5070040;28;20021;-71
2023/03/17 06:18:00;;;;;;;10.10;9.70;;;;;;;;;;5070493;28;20044;-71
2023/03/17 06:20:25;;;;;;;10.30;9.80;;;;;;;;;;5069667;28;20431;-71
2023/03/17 06:22:50;;;;;;;10.00;9.60;;;;;;;;;;5070372;28;20031;-71
2023/03/17 06:25:16;;;;;;;10.30;9.80;;;;;;;;;;5062036;28;20017;-72
2023/03/17 06:27:41;;;;;;;10.40;9.90;;;;;;;;;;5061655;28;20032;-70
2023/03/17 06:30:07;;;;;;;10.70;10.20;;;;;;;;;;5073422;28;20464;-70
2023/03/17 06:32:34;;;;;;;10.48;9.98;;;;;;;;;;5068257;28;20029;-71
2023/03/17 06:35:00;;;;;;;9.93;9.52;;;;;;;;;;5071705;28;20029;-71
2023/03/17 06:37:25;;;;;;;10.38;9.88;;;;;;;;;;5070222;28;20519;-70
2023/03/17 06:39:51;;;;;;;10.20;9.80;;;;;;;;;;5069482;28;20028;-71
2023/03/17 06:42:16;;;;;;;10.75;10.25;;;;;;;;;;5061599;28;20533;-72
2023/03/17 06:44:41;;;;;;;10.68;10.18;;;;;;;;;;5070953;28;20024;-72
2023/03/17 06:47:07;;;;;;;10.20;9.80;;;;;;;;;;5069528;28;20044;-72
2023/03/17 06:49:32;;;;;;;10.23;9.80;;;;;;;;;;5065623;28;20021;-71
2023/03/17 06:51:58;;;;;;;10.38;9.90;;;;;;;;;;5076803;28;20041;-72
2023/03/17 06:54:24;;;;;;;10.70;10.20;;;;;;;;;;5066001;28;20099;-72
2023/03/17 06:56:50;;;;;;;10.73;10.23;;;;;;;;;;5063796;28;20037;-71
2023/03/17 06:59:15;;;;;;;10.45;9.95;;;;;;;;;;5070003;28;20021;-71
2023/03/17 07:01:41;;;;;;;10.68;10.18;;;;;;;;;;5077543;28;20024;-71
2023/03/17 07:04:06;;;;;;;10.70;10.20;;;;;;;;;;5078061;28;20035;-71
2023/03/17 07:06:32;;;;;;;10.65;10.15;;;;;;;;;;5069000;28;20387;-71
2023/03/17 07:08:57;;;;;;;10.32;9.88;;;;;;;;;;5069555;28;20016;-72
2023/03/17 07:11:23;;;;;;;10.70;10.20;;;;;;;;;;5074366;28;20031;-71
2023/03/17 07:13:49;;;;;;;10.45;9.95;;;;;;;;;;5051916;28;20036;-71
2023/03/17 07:16:15;;;;;;;10.15;9.75;;;;;;;;;;5066577;28;20028;-71
2023/03/17 07:18:41;;;;;;;10.68;10.18;;;;;;;;;;5064114;28;20565;-71
2023/03/17 07:21:06;;;;;;;9.95;9.55;;;;;;;;;;5070079;28;20047;-72
2023/03/17 07:23:33;;;;;;;10.43;9.93;;;;;;;;;;5066384;28;20008;-70
2023/03/17 07:25:58;;;;;;;10.35;9.90;;;;;;;;;;5070377;28;20458;-71
2023/03/17 07:28:23;;;;;;;10.70;10.20;;;;;;;;;;5070334;28;20040;-71
2023/03/17 07:30:49;;;;;;;10.48;9.98;;;;;;;;;;5061185;28;20021;-71
2023/03/17 07:33:16;;;;;;;10.82;10.32;;;;;;;;;;5064771;28;20564;-70
2023/03/17 07:35:42;;;;;;;10.55;10.05;;;;;;;;;;5064507;28;20035;-70
2023/03/17 07:38:08;;;;;;;10.70;10.20;;;;;;;;;;5068630;28;20035;-70
2023/03/17 07:40:34;;;;;;;10.82;10.32;;;;;;;;;;5069288;28;20024;-72
2023/03/17 07:42:59;;;;;;;10.07;9.68;;;;;;;;;;5064937;28;20042;-71
2023/03/17 07:45:25;;;;;;;10.23;9.80;;;;;;;;;;5070343;28;20032;-71
2023/03/17 07:47:50;;;;;;;11.27;10.77;;;;;;;;;;5062947;28;20057;-66
2023/03/17 07:50:16;;;;;;;10.55;10.05;;;;;;;;;;5068410;28;20044;-66
2023/03/17 07:52:41;;;;;;;10.80;10.30;;;;;;;;;;5061452;28;20059;-66
2023/03/17 07:55:09;;;;;;;11.05;10.55;;;;;;;;;;5079363;28;20107;-67
2023/03/17 07:57:34;;;;;;;11.10;10.60;;;;;;;;;;5070353;28;20120;-67
2023/03/17 08:00:00;;;;;;;11.25;10.75;;;;;;;;;;5068635;28;20735;-66
2023/03/17 08:02:25;;;;;;;11.18;10.68;;;;;;;;;;5070212;28;20032;-70
2023/03/17 08:04:50;;;;;;;11.10;10.60;;;;;;;;;;5061894;28;20092;-70
2023/03/17 08:07:16;;;;;;;11.10;10.60;;;;;;;;;;5074753;28;20020;-71
2023/03/17 08:09:41;;;;;;;10.85;10.35;;;;;;;;;;5076112;28;20027;-69
2023/03/17 08:12:08;;;;;;;10.70;10.20;;;;;;;;;;5069745;28;20035;-69
2023/03/17 08:14:33;;;;;;;10.95;10.45;;;;;;;;;;5069566;28;20055;-73
2023/03/17 08:16:58;;;;;;;11.43;10.93;;;;;;;;;;5068755;28;20017;-74
2023/03/17 08:19:24;;;;;;;10.98;10.48;;;;;;;;;;5065913;28;20099;-74
2023/03/17 08:21:49;;;;;;;11.43;10.93;;;;;;;;;;5073407;28;20016;-73
2023/03/17 08:24:15;;;;;;;10.70;10.20;;;;;;;;;;5063567;28;20104;-73
2023/03/17 08:26:40;;;;;;;10.80;10.30;;;;;;;;;;5069705;28;20518;-71
2023/03/17 08:29:07;;;;;;;11.27;10.77;;;;;;;;;;5063762;28;20023;-70
2023/03/17 08:31:32;;;;;;;10.63;10.13;;;;;;;;;;5065902;28;20026;-71
2023/03/17 08:33:58;;;;;;;11.48;10.98;;;;;;;;;;5069712;28;20103;-67
2023/03/17 08:36:24;;;;;;;11.02;10.52;;;;;;;;;;5065184;28;20016;-66
2023/03/17 08:38:50;;;;;;;11.45;10.95;;;;;;;;;;5075048;28;20456;-67
2023/03/17 08:41:21;;;;;;;11.00;10.50;;;;;;;;;;5072430;28;20047;-66
2023/03/17 08:43:47;;;;;;;11.45;10.95;;;;;;;;;;5069001;28;20020;-69
2023/03/17 08:46:20;;;;;;;11.50;11.00;;;;;;;;;;5073326;28;20066;-70
2023/03/17 08:48:46;;;;;;;11.85;11.25;;;;;;;;;;5072054;28;20891;-68
2023/03/17 08:51:13;;;;;;;11.77;11.18;;;;;;;;;;5065557;28;20021;-72
2023/03/17 08:53:38;;;;;;;11.23;10.73;;;;;;;;;;5066305;28;20035;-66
2023/03/17 08:56:04;;;;;;;11.18;10.68;;;;;;;;;;5064759;28;20044;-67
2023/03/17 08:58:29;;;;;;;12.15;11.55;;;;;;;;;;5069147;28;20107;-67
2023/03/17 09:00:59;;;;;;;13.02;12.32;;;;;;;;;;5070630;28;20036;-66
2023/03/17 09:03:25;;;;;;;12.68;11.98;;;;;;;;;;5073971;28;20016;-69
2023/03/17 09:05:50;;;;;;;13.30;12.60;;;;;;;;;;5072740;28;20113;-67
2023/03/17 09:08:16;;;;;;;13.32;12.60;;;;;;;;;;5062331;28;20557;-67
2023/03/17 09:10:41;;;;;;;12.90;12.20;;;;;;;;;;5073002;28;20028;-69
2023/03/17 09:13:07;;;;;;;12.38;11.68;;;;;;;;;;5074888;28;20033;-67
2023/03/17 09:15:33;;;;;;;12.20;11.52;;;;;;;;;;5067364;28;20040;-72
2023/03/17 09:17:59;;;;;;;11.75;11.15;;;;;;;;;;5074289;28;20016;-68
2023/03/17 09:20:25;;;;;;;12.38;11.68;;;;;;;;;;5075238;28;20140;-68
2023/03/17 09:22:50;;;;;;;12.48;11.77;;;;;;;;;;5073201;28;20115;-66
2023/03/17 09:25:16;;;;;;;12.20;11.50;;;;;;;;;;5069819;28;20042;-67
2023/03/17 09:27:42;;;;;;;12.13;11.45;;;;;;;;;;5068523;28;20067;-69
2023/03/17 09:30:09;;;;;;;11.50;10.90;;;;;;;;;;5085235;28;20565;-70
2023/03/17 09:32:35;;;;;;;11.55;10.95;;;;;;;;;;5078772;28;20035;-69
2023/03/17 09:35:02;;;;;;;13.63;12.82;;;;;;;;;;5074413;28;20439;-69
2023/03/17 09:37:28;;;;;;;12.02;11.35;;;;;;;;;;5072466;28;20051;-69
2023/03/17 09:39:53;;;;;;;12.63;11.93;;;;;;;;;;5071248;28;20468;-67
2023/03/17 09:42:24;;;;;;;12.23;11.52;;;;;;;;;;5065199;28;21099;-66
2023/03/17 09:45:16;;;;;;;12.60;11.90;;;;;;;;;;5067049;28;20031;-68
2023/03/17 09:47:44;;;;;;;11.45;10.85;;;;;;;;;;5070220;28;20462;-67
2023/03/17 09:50:16;;;;;;;11.43;10.82;;;;;;;;;;5073104;28;20510;-65
2023/03/17 09:52:42;;;;;;;11.98;11.32;;;;;;;;;;5069504;28;20039;-66
2023/03/17 09:55:11;;;;;;;11.55;10.95;;;;;;;;;;5084483;28;20024;-67
2023/03/17 09:57:38;;;;;;;12.45;11.75;;;;;;;;;;5071045;28;20052;-66
2023/03/17 10:00:18;;;;;;;12.00;11.32;;;;;;;;;;5066735;28;20031;-69
2023/03/17 10:02:44;;;;;;;11.52;10.93;;;;;;;;;;5062835;28;20037;-67
2023/03/17 10:05:16;;;;;;;11.90;11.27;;;;;;;;;;5076646;28;20498;-66
2023/03/17 10:07:52;;;;;;;11.38;10.77;;;;;;;;;;5075429;28;20099;-66
2023/03/17 10:10:41;;;;;;;11.15;10.55;;;;;;;;;;5074993;28;20020;-66
2023/03/17 10:13:27;;;;;;;11.45;10.85;;;;;;;;;;5065999;28;20044;-68
2023/03/17 10:15:57;;;;;;;12.15;11.45;;;;;;;;;;5063359;28;20035;-67
2023/03/17 10:18:25;;;;;;;11.05;10.45;;;;;;;;;;5071237;28;20024;-68
2023/03/17 10:20:56;;;;;;;11.10;10.50;;;;;;;;;;5074183;28;20020;-68
2023/03/17 10:23:24;;;;;;;11.43;10.82;;;;;;;;;;5061977;28;20028;-71
2023/03/17 10:25:51;;;;;;;12.25;11.55;;;;;;;;;;5096393;27;20111;-67
2023/03/17 10:28:19;;;;;;;11.90;11.23;;;;;;;;;;5066040;28;20468;-67
2023/03/17 10:30:45;;;;;;;12.50;11.80;;;;;;;;;;5070302;28;20081;-70
2023/03/17 10:33:11;;;;;;;11.25;10.65;;;;;;;;;;5065703;28;20020;-65
2023/03/17 10:35:38;;;;;;;11.77;11.10;;;;;;;;;;5069662;28;20016;-67
2023/03/17 10:38:14;;;;;;;11.77;11.15;;;;;;;;;;5070404;28;20021;-67
2023/03/17 10:40:40;;;;;;;11.80;11.10;;;;;;;;;;5066474;28;20017;-66
2023/03/17 10:43:09;;;;;;;12.10;11.40;;;;;;;;;;5075924;28;20103;-66
2023/03/17 10:45:46;;;;;;;10.88;10.27;;;;;;;;;;5064438;28;20039;-70
2023/03/17 10:48:16;;;;;;;12.25;11.55;;;;;;;;;;5067798;28;20032;-68
2023/03/17 10:50:41;;;;;;;11.38;10.77;;;;;;;;;;5076306;28;20119;-66
2023/03/17 10:53:18;;;;;;;11.20;10.60;;;;;;;;;;5063396;28;20095;-71
2023/03/17 10:55:54;;;;;;;11.02;10.43;;;;;;;;;;5069789;28;20031;-67
2023/03/17 10:58:31;;;;;;;11.52;10.93;;;;;;;;;;5074275;28;20032;-66
2023/03/17 11:01:01;;;;;;;11.40;10.77;;;;;;;;;;5076634;28;20391;-68
2023/03/17 11:03:28;;;;;;;11.75;11.05;;;;;;;;;;5071557;28;20016;-67
2023/03/17 11:05:56;;;;;;;11.10;10.50;;;;;;;;;;5078728;28;20026;-62
2023/03/17 11:08:22;;;;;;;11.07;10.48;;;;;;;;;;5078313;28;20081;-68
2023/03/17 11:10:52;;;;;;;11.43;10.82;;;;;;;;;;5069776;28;20016;-66
2023/03/17 11:13:17;;;;;;;11.82;11.13;;;;;;;;;;5061925;28;20052;-70
2023/03/17 11:15:47;;;;;;;12.05;11.35;;;;;;;;;;5065864;28;20057;-67
2023/03/17 11:18:14;;;;;;;10.98;10.38;;;;;;;;;;5078156;28;20403;-69
2023/03/17 11:20:43;;;;;;;11.07;10.48;;;;;;;;;;5068772;28;20207;-66
2023/03/17 11:23:27;;;;;;;12.15;11.45;;;;;;;;;;5071564;28;20509;-68
2023/03/17 11:26:00;;;;;;;11.60;10.95;;;;;;;;;;5061030;28;20035;-64
2023/03/17 11:28:29;;;;;;;11.17;10.57;;;;;;;;;;5063767;28;20032;-67
2023/03/17 11:30:56;;;;;;;11.82;11.13;;;;;;;;;;5074022;28;20031;-68
2023/03/17 11:33:24;;;;;;;11.25;10.65;;;;;;;;;;5068141;28;20051;-69
2023/03/17 11:35:55;;;;;;;11.80;11.10;;;;;;;;;;5061891;28;20029;-69
2023/03/17 11:38:23;;;;;;;10.63;10.05;;;;;;;;;;5071769;28;20105;-67
2023/03/17 11:40:57;;;;;;;12.20;11.50;;;;;;;;;;5063916;28;20438;-65
2023/03/17 11:43:23;;;;;;;;;;;;;;;;;;5066474;28;20186;-65
2023/03/17 11:45:48;;;;;;;12.15;11.45;;;;;;;;;;5065813;28;19994;-66
2023/03/17 11:48:20;;;;;;;12.27;11.57;;;;;;;;;;5069384;28;20526;-65
2023/03/17 11:50:50;;;;;;;11.20;10.60;;;;;;;;;;5071035;28;20028;-63
2023/03/17 11:53:35;;;;;;;12.32;11.63;;;;;;;;;;5067438;28;20543;-68
2023/03/17 11:56:00;;;;;;;;;;;;;;;;;;5061184;28;20044;-66
2023/03/17 11:58:34;;;;;;;10.77;10.18;;;;;;;;;;5063225;28;19919;-63
2023/03/17 12:01:01;;;;;;;11.00;10.40;;;;;;;;;;5073108;28;20463;-64
2023/03/17 12:03:26;;;;;;;10.85;10.25;;;;;;;;;;5070627;28;20123;-63
2023/03/17 12:05:54;;;;;;;11.05;10.45;;;;;;;;;;5068416;28;20111;-63
2023/03/17 12:08:41;;;;;;;10.40;9.90;;;;;;;;;;5066021;28;20127;-63
2023/03/17 12:11:09;;;;;;;10.65;10.07;;;;;;;;;;5054562;28;20020;-63
2023/03/17 12:13:45;;;;;;;10.10;9.60;;;;;;;;;;5061809;28;20028;-63
2023/03/17 12:16:10;;;;;;;11.18;10.57;;;;;;;;;;5074047;28;20028;-64
2023/03/17 12:18:38;;;;;;;10.82;10.25;;;;;;;;;;5059771;28;20052;-63
2023/03/17 12:21:21;;;;;;;10.63;10.07;;;;;;;;;;5075103;28;20036;-63
2023/03/17 12:23:49;;;;;;;10.95;10.35;;;;;;;;;;5074149;28;20097;-62
2023/03/17 12:26:19;;;;;;;10.10;9.60;;;;;;;;;;5065147;28;20025;-68
2023/03/17 12:28:45;;;;;;;10.52;10.02;;;;;;;;;;5070948;28;20021;-62
2023/03/17 12:31:19;;;;;;;11.13;10.52;;;;;;;;;;5058547;28;20032;-67
2023/03/17 12:33:59;;;;;;;12.65;11.90;;;;;;;;;;5055207;28;20024;-63
2023/03/17 12:36:25;;;;;;;12.57;11.82;;;;;;;;;;5052618;28;20032;-65
2023/03/17 12:39:04;;;;;;;13.35;12.55;;;;;;;;;;5066269;28;20111;-65
2023/03/17 12:41:48;;;;;;;12.30;11.60;;;;;;;;;;5057150;28;20039;-67
2023/03/17 12:44:32;;;;;;;12.25;11.55;;;;;;;;;;5062635;28;20037;-65
2023/03/17 12:47:16;;;;;;;11.80;11.10;;;;;;;;;;5057001;28;20044;-64
2023/03/17 12:49:47;;;;;;;12.03;11.33;;;;;;;;;;5074805;28;20032;-67
2023/03/17 12:52:31;;;;;;;11.05;10.45;;;;;;;;;;5066314;28;20430;-66
2023/03/17 12:54:59;;;;;;;12.73;11.93;;;;;;;;;;5062953;28;21624;-66
2023/03/17 12:57:28;;;;;;;12.40;11.70;;;;;;;;;;5071172;28;20506;-64
2023/03/17 13:00:04;;;;;;;11.27;10.68;;;;;;;;;;5062593;28;20025;-66
2023/03/17 13:02:29;;;;;;;13.07;12.27;;;;;;;;;;5070590;28;20077;-66
2023/03/17 13:05:03;;;;;;;12.25;11.55;;;;;;;;;;5064881;28;20033;-68
2023/03/17 13:07:33;;;;;;;11.80;11.10;;;;;;;;;;5071324;28;20550;-70
2023/03/17 13:10:01;;;;;;;11.30;10.70;;;;;;;;;;5060649;28;20032;-70
2023/03/17 13:12:38;;;;;;;11.73;11.02;;;;;;;;;;5058686;28;20550;-64
2023/03/17 13:15:20;;;;;;;12.68;11.88;;;;;;;;;;5061694;28;20519;-66
2023/03/17 13:17:45;;;;;;;12.52;11.75;;;;;;;;;;5065522;28;20913;-66
2023/03/17 13:20:16;;;;;;;11.35;10.75;;;;;;;;;;5074834;28;20020;-68
2023/03/17 13:23:02;;;;;;;12.93;12.13;;;;;;;;;;5061155;28;20472;-67
2023/03/17 13:25:31;;;;;;;11.80;11.13;;;;;;;;;;5070071;28;20442;-64
2023/03/17 13:28:12;;;;;;;11.20;10.60;;;;;;;;;;5061330;28;20043;-67
2023/03/17 13:30:37;;;;;;;11.00;10.40;;;;;;;;;;5066915;28;20032;-62
2023/03/17 13:33:08;;;;;;;9.65;9.15;;;;;;;;;;5075363;28;20020;-66
2023/03/17 13:35:45;;;;;;;10.30;9.80;;;;;;;;;;5072499;28;20024;-65
2023/03/17 13:38:18;;;;;;;10.27;9.77;;;;;;;;;;5072822;28;20056;-65
2023/03/17 13:40:54;;;;;;;11.20;10.60;;;;;;;;;;5070358;28;20119;-64
2023/03/17 13:43:38;;;;;;;9.82;9.32;;;;;;;;;;5066308;28;20531;-63
2023/03/17 13:46:23;;;;;;;11.05;10.45;;;;;;;;;;5069502;28;20116;-64
2023/03/17 13:48:48;;;;;;;10.00;9.50;;;;;;;;;;5066014;28;20440;-63
2023/03/17 13:51:17;;;;;;;9.90;9.40;;;;;;;;;;5072064;28;20024;-64
2023/03/17 13:54:02;;;;;;;9.57;9.13;;;;;;;;;;5073237;28;20017;-64
2023/03/17 13:56:37;;;;;;;10.85;10.25;;;;;;;;;;5062201;28;20471;-64
2023/03/17 13:59:05;;;;;;;;;;;;;;;;;;5067448;28;20509;-64
2023/03/17 14:01:34;;;;;;;11.65;11.02;;;;;;;;;;5064244;28;19937;-62
2023/03/17 14:04:02;;;;;;;11.20;10.60;;;;;;;;;;5069491;28;20099;-64
2023/03/17 14:06:30;;;;;;;10.35;9.85;;;;;;;;;;5064565;28;20496;-64
2023/03/17 14:09:07;;;;;;;10.35;9.85;;;;;;;;;;5057596;28;20056;-67
2023/03/17 14:11:36;;;;;;;9.70;9.20;;;;;;;;;;5076500;28;20051;-66
2023/03/17 14:14:04;;;;;;;10.55;10.05;;;;;;;;;;5081524;28;20027;-64
2023/03/17 14:16:35;;;;;;;10.23;9.73;;;;;;;;;;5070846;28;20025;-65
2023/03/17 14:19:16;;;;;;;10.75;10.15;;;;;;;;;;5073555;28;20031;-62
2023/03/17 14:21:41;;;;;;;12.13;11.43;;;;;;;;;;5049442;28;20040;-67
2023/03/17 14:24:33;;;;;;;10.35;9.85;;;;;;;;;;5063351;28;20029;-65
2023/03/17 14:27:07;;;;;;;10.30;9.80;;;;;;;;;;5069808;28;20021;-65
2023/03/17 14:29:33;;;;;;;;;;;;;;;;;;5064709;28;20028;-66
2023/03/17 14:32:02;;;;;;;11.00;10.40;;;;;;;;;;5062201;28;19961;-66
2023/03/17 14:34:28;;;;;;;10.95;10.35;;;;;;;;;;5063502;28;20475;-64